createdAt,value
2023-04-16T00:00:26.171Z,3.450
2023-04-16T00:01:19.260Z,3.300
2023-04-16T00:02:45.954Z,2.300
2023-04-16T00:03:39.092Z,3.600
2023-04-16T00:04:30.600Z,3.600
2023-04-16T00:05:28.265Z,2.700
2023-04-16T00:06:40.205Z,2.400
2023-04-16T00:07:30.366Z,3.100
2023-04-16T00:08:25.522Z,3.200
2023-04-16T00:09:49.401Z,2.900
2023-04-16T00:10:44.608Z,3.300
2023-04-16T00:11:32.484Z,3.400
2023-04-16T00:12:28.320Z,3.200
2023-04-16T00:13:22.962Z,3.200
2023-04-16T00:14:36.709Z,2.800
2023-04-16T00:15:28.706Z,3.500
2023-04-16T00:16:23.076Z,3.150
2023-04-16T00:17:37.098Z,3.600
2023-04-16T00:18:40.283Z,3.200
2023-04-16T00:19:32.968Z,3.850
2023-04-16T00:20:24.752Z,2.400
2023-04-16T00:21:39.888Z,3.900
2023-04-16T00:22:29.354Z,3.300
2023-04-16T00:23:25.114Z,3.300
2023-04-16T00:24:50.638Z,2.200
2023-04-16T00:25:43.586Z,2.950
2023-04-16T00:26:36.556Z,3.900
2023-04-16T00:27:22.903Z,3.400
2023-04-16T00:28:22.110Z,2.900
2023-04-16T00:29:36.323Z,2.400
2023-04-16T00:30:30.332Z,3.550
2023-04-16T00:31:21.908Z,3.300
2023-04-16T00:32:48.148Z,2.900
2023-04-16T00:33:24.866Z,3.200
2023-04-16T00:34:34.110Z,3.450
2023-04-16T00:35:26.909Z,3.600
2023-04-16T00:36:41.014Z,2.600
2023-04-16T00:37:33.426Z,3.450
2023-04-16T00:38:26.262Z,3.100
2023-04-16T00:39:19.387Z,4.800
2023-04-16T00:40:44.760Z,3.200
2023-04-16T00:41:37.645Z,3.100
2023-04-16T00:42:30.900Z,3.000
2023-04-16T00:43:22.578Z,3.700
2023-04-16T00:44:21.806Z,3.550
2023-04-16T00:45:31.140Z,4.700
2023-04-16T00:46:23.474Z,3.200
2023-04-16T00:47:49.336Z,4.200
2023-04-16T00:48:42.176Z,3.900
2023-04-16T00:49:33.371Z,4.300
2023-04-16T00:50:28.197Z,4.000
2023-04-16T00:51:43.055Z,4.000
2023-04-16T00:52:34.754Z,4.100
2023-04-16T00:53:28.930Z,4.250
2023-04-16T00:54:20.644Z,3.800
2023-04-16T00:55:45.776Z,4.600
2023-04-16T00:56:34.501Z,5.000
2023-04-16T00:57:32.599Z,4.200
2023-04-16T00:58:24.656Z,5.600
2023-04-16T00:59:41.195Z,3.650
2023-04-16T01:00:32.194Z,3.700
2023-04-16T01:01:31.814Z,3.750
2023-04-16T01:09:24.028Z,3.850
2023-04-16T01:10:46.595Z,5.250
2023-04-16T01:11:39.978Z,4.400
2023-04-16T01:12:22.844Z,3.800
2023-04-16T01:13:24.661Z,4.500
2023-04-16T01:14:40.515Z,5.600
2023-04-16T01:15:33.138Z,5.400
2023-04-16T01:16:27.126Z,5.400
2023-04-16T01:17:51.161Z,3.800
2023-04-16T01:18:26.919Z,5.000
2023-04-16T01:19:35.710Z,3.300
2023-04-16T01:20:30.233Z,4.950
2023-04-16T01:21:23.081Z,4.100
2023-04-16T01:22:39.760Z,5.550
2023-04-16T01:23:31.267Z,5.200
2023-04-16T01:24:23.978Z,4.500
2023-04-16T01:25:46.249Z,4.300
2023-04-16T01:26:39.672Z,5.200
2023-04-16T01:27:34.938Z,4.900
2023-04-16T01:28:25.394Z,6.100
2023-04-16T01:29:24.504Z,4.500
2023-04-16T01:30:35.329Z,4.600
2023-04-16T01:31:27.588Z,5.200
2023-04-16T01:32:22.767Z,4.000
2023-04-16T01:33:44.903Z,4.650
2023-04-16T01:34:36.555Z,4.500
2023-04-16T01:35:29.586Z,3.550
2023-04-16T01:36:22.399Z,2.700
2023-04-16T01:37:38.425Z,3.700
2023-04-16T01:38:35.216Z,3.900
2023-04-16T01:39:24.796Z,4.100
2023-04-16T01:40:19.735Z,4.800
2023-04-16T01:41:32.532Z,5.000
2023-04-16T01:42:33.467Z,5.700
2023-04-16T01:43:27.193Z,6.200
2023-04-16T01:44:42.507Z,5.550
2023-04-16T01:45:37.451Z,5.500
2023-04-16T01:46:26.164Z,5.400
2023-04-16T01:47:22.248Z,6.700
2023-04-16T01:48:45.029Z,5.800
2023-04-16T01:49:39.626Z,6.050
2023-04-16T01:50:30.418Z,6.300
2023-04-16T01:51:23.411Z,6.700
2023-04-16T01:52:31.704Z,6.950
2023-04-16T01:53:35.816Z,6.200
2023-04-16T01:54:28.407Z,6.850
2023-04-16T01:55:49.346Z,5.900
2023-04-16T01:56:43.065Z,7.500
2023-04-16T01:57:24.078Z,6.600
2023-04-16T01:58:27.243Z,8.300
2023-04-16T01:59:21.632Z,7.100
2023-04-16T02:00:37.801Z,7.100
2023-04-16T02:02:01.540Z,7.000
2023-04-16T02:02:23.635Z,6.400
2023-04-16T02:03:28.402Z,7.900
2023-04-16T02:04:44.178Z,7.300
2023-04-16T02:05:33.402Z,7.250
2023-04-16T02:06:24.254Z,7.000
2023-04-16T02:07:44.132Z,7.200
2023-04-16T02:08:34.661Z,7.700
2023-04-16T02:09:27.490Z,7.050
2023-04-16T02:10:20.651Z,7.300
2023-04-16T02:11:58.814Z,7.600
2023-04-16T02:12:36.385Z,6.900
2023-04-16T02:13:29.596Z,7.100
2023-04-16T02:14:25.243Z,7.700
2023-04-16T02:15:38.578Z,7.100
2023-04-16T02:16:51.379Z,8.700
2023-04-16T02:17:27.725Z,6.900
2023-04-16T02:18:48.273Z,7.300
2023-04-16T02:19:41.618Z,6.400
2023-04-16T02:20:30.341Z,7.700
2023-04-16T02:21:26.762Z,7.700
2023-04-16T02:22:43.007Z,8.000
2023-04-16T02:23:38.104Z,7.900
2023-04-16T02:24:29.309Z,7.900
2023-04-16T02:25:22.383Z,7.300
2023-04-16T02:26:34.820Z,6.900
2023-04-16T02:27:37.687Z,7.200
2023-04-16T02:28:30.563Z,7.900
2023-04-16T02:29:22.483Z,7.400
2023-04-16T02:30:42.818Z,7.300
2023-04-16T02:31:28.459Z,7.300
2023-04-16T02:32:26.501Z,7.800
2023-04-16T02:33:47.202Z,7.600
2023-04-16T02:34:43.203Z,8.400
2023-04-16T02:35:34.774Z,8.100
2023-04-16T02:36:26.251Z,8.000
2023-04-16T02:37:32.011Z,7.950
2023-04-16T02:38:38.510Z,6.900
2023-04-16T02:39:31.921Z,8.150
2023-04-16T02:40:23.732Z,8.900
2023-04-16T02:41:45.445Z,8.700
2023-04-16T02:42:23.473Z,9.150
2023-04-16T02:43:31.308Z,7.000
2023-04-16T02:44:24.140Z,8.100
2023-04-16T02:46:03.669Z,7.900
2023-04-16T02:46:36.211Z,9.450
2023-04-16T02:47:29.184Z,7.100
2023-04-16T02:48:22.027Z,7.400
2023-04-16T02:49:41.508Z,8.400
2023-04-16T02:50:34.352Z,9.700
2023-04-16T02:51:28.869Z,9.550
2023-04-16T02:52:20.448Z,9.500
2023-04-16T02:53:21.070Z,9.700
2023-04-16T02:54:32.888Z,10.600
2023-04-16T02:55:24.603Z,9.650
2023-04-16T02:56:45.489Z,8.400
2023-04-16T02:57:39.708Z,10.150
2023-04-16T02:58:31.648Z,10.400
2023-04-16T02:59:24.894Z,8.850
2023-04-16T03:00:41.900Z,9.200
2023-04-16T03:01:39.098Z,10.700
2023-04-16T03:02:34.694Z,9.050
2023-04-16T03:03:25.260Z,9.450
2023-04-16T03:04:49.907Z,9.400
2023-04-16T03:05:35.681Z,6.900
2023-04-16T03:06:31.683Z,8.750
2023-04-16T03:07:23.062Z,8.500
2023-04-16T03:08:49.103Z,8.850
2023-04-16T03:09:40.682Z,11.100
2023-04-16T03:10:26.740Z,9.100
2023-04-16T03:11:38.280Z,9.300
2023-04-16T03:12:44.128Z,9.100
2023-04-16T03:13:37.757Z,9.750
2023-04-16T03:14:28.847Z,9.200
2023-04-16T03:15:49.031Z,9.500
2023-04-16T03:16:31.422Z,9.000
2023-04-16T03:17:34.164Z,10.150
2023-04-16T03:18:26.501Z,8.800
2023-04-16T03:19:43.374Z,9.600
2023-04-16T03:20:38.865Z,9.700
2023-04-16T03:21:31.940Z,10.000
2023-04-16T03:22:24.327Z,8.300
2023-04-16T03:23:44.593Z,10.100
2023-04-16T03:24:59.393Z,10.700
2023-04-16T03:25:27.568Z,9.500
2023-04-16T03:26:21.107Z,9.600
2023-04-16T03:27:25.903Z,10.000
2023-04-16T03:28:45.147Z,9.700
2023-04-16T03:29:39.855Z,9.600
2023-04-16T03:30:51.107Z,9.900
2023-04-16T03:31:44.137Z,11.200
2023-04-16T03:32:35.433Z,10.400
2023-04-16T03:33:33.656Z,10.350
2023-04-16T03:34:51.223Z,10.000
2023-04-16T03:35:40.255Z,9.400
2023-04-16T03:36:34.958Z,9.700
2023-04-16T03:37:29.110Z,9.000
2023-04-16T03:38:33.168Z,9.550
2023-04-16T03:39:41.565Z,10.700
2023-04-16T03:40:31.306Z,8.550
2023-04-16T03:41:31.308Z,9.800
2023-04-16T03:42:48.685Z,9.700
2023-04-16T03:43:38.189Z,9.800
2023-04-16T03:44:31.517Z,10.700
2023-04-16T03:45:22.595Z,10.700
2023-04-16T03:46:43.413Z,8.700
2023-04-16T03:47:37.431Z,9.200
2023-04-16T03:48:26.380Z,9.500
2023-04-16T03:49:46.918Z,11.800
2023-04-16T03:50:32.042Z,8.500
2023-04-16T03:51:31.168Z,11.100
2023-04-16T03:52:24.893Z,10.550
2023-04-16T03:53:45.213Z,10.800
2023-04-16T03:54:38.853Z,10.500
2023-04-16T03:55:24.232Z,8.300
2023-04-16T03:56:23.514Z,11.400
2023-04-16T03:57:44.929Z,11.600
2023-04-16T03:58:37.099Z,10.600
2023-04-16T03:59:29.684Z,10.500
2023-04-16T04:00:21.225Z,10.600
2023-04-16T04:01:28.961Z,9.100
2023-04-16T04:02:34.772Z,10.400
2023-04-16T04:03:30.121Z,10.450
2023-04-16T04:04:22.981Z,10.100
2023-04-16T04:05:39.483Z,10.500
2023-04-16T04:06:21.487Z,9.500
2023-04-16T04:07:25.481Z,10.300
2023-04-16T04:08:46.457Z,10.100
2023-04-16T04:09:38.730Z,10.000
2023-04-16T04:10:33.160Z,10.050
2023-04-16T04:11:24.931Z,8.500
2023-04-16T04:12:26.411Z,9.900
2023-04-16T04:13:37.668Z,9.900
2023-04-16T04:14:29.280Z,8.750
2023-04-16T04:15:23.521Z,9.800
2023-04-16T04:18:25.517Z,10.850
2023-04-16T04:19:21.939Z,10.700
2023-04-16T04:20:42.102Z,9.600
2023-04-16T04:21:34.001Z,9.750
2023-04-16T04:22:26.058Z,9.700
2023-04-16T04:23:21.391Z,10.400
2023-04-16T04:24:35.826Z,11.800
2023-04-16T04:25:33.240Z,11.100
2023-04-16T04:26:27.708Z,9.600
2023-04-16T04:27:44.059Z,9.950
2023-04-16T04:28:39.318Z,10.100
2023-04-16T04:29:27.825Z,9.900
2023-04-16T04:30:23.319Z,10.250
2023-04-16T04:31:44.464Z,7.300
2023-04-16T04:32:38.876Z,8.250
2023-04-16T04:33:31.852Z,9.800
2023-04-16T04:34:23.211Z,8.200
2023-04-16T04:35:33.168Z,8.600
2023-04-16T04:36:34.076Z,9.600
2023-04-16T04:37:28.740Z,9.200
2023-04-16T04:38:20.202Z,9.100
2023-04-16T04:39:42.593Z,8.300
2023-04-16T04:40:25.109Z,9.400
2023-04-16T04:41:27.904Z,9.400
2023-04-16T04:42:22.354Z,10.200
2023-04-16T04:43:39.247Z,10.400
2023-04-16T04:44:31.877Z,9.400
2023-04-16T04:45:25.234Z,8.900
2023-04-16T04:46:31.149Z,10.100
2023-04-16T04:48:05.125Z,9.600
2023-04-16T04:48:31.849Z,11.200
2023-04-16T04:49:25.692Z,9.300
2023-04-16T04:50:44.982Z,10.800
2023-04-16T04:51:22.694Z,9.700
2023-04-16T04:52:28.470Z,9.750
2023-04-16T04:53:21.610Z,9.500
2023-04-16T04:54:44.672Z,9.500
2023-04-16T04:55:38.315Z,9.200
2023-04-16T04:56:29.864Z,9.200
2023-04-16T04:57:21.765Z,9.700
2023-04-16T04:58:41.811Z,9.600
2023-04-16T04:59:32.946Z,10.200
2023-04-16T05:00:25.932Z,9.150
2023-04-16T05:01:48.855Z,9.250
2023-04-16T05:02:43.683Z,8.900
2023-04-16T05:03:33.924Z,9.500
2023-04-16T05:04:25.930Z,11.200
2023-04-16T05:05:43.640Z,10.100
2023-04-16T05:06:37.435Z,11.050
2023-04-16T05:07:29.973Z,11.100
2023-04-16T05:08:23.402Z,11.300
2023-04-16T05:09:38.091Z,9.600
2023-04-16T05:10:37.151Z,10.000
2023-04-16T05:11:32.091Z,10.650
2023-04-16T05:12:23.270Z,12.350
2023-04-16T05:13:42.808Z,10.500
2023-04-16T05:14:28.751Z,10.600
2023-04-16T05:15:26.097Z,11.200
2023-04-16T05:16:48.781Z,12.200
2023-04-16T05:17:45.544Z,11.200
2023-04-16T05:18:35.780Z,11.600
2023-04-16T05:19:21.605Z,13.500
2023-04-16T05:20:21.187Z,12.200
2023-04-16T05:21:39.663Z,12.400
2023-04-16T05:22:32.995Z,12.400
2023-04-16T05:23:25.035Z,13.500
2023-04-16T05:24:47.192Z,12.300
2023-04-16T05:25:26.875Z,11.750
2023-04-16T05:26:32.424Z,11.600
2023-04-16T05:27:26.831Z,12.200
2023-04-16T05:28:41.144Z,13.800
2023-04-16T05:29:35.728Z,12.950
2023-04-16T05:30:27.533Z,12.100
2023-04-16T05:31:20.335Z,13.450
2023-04-16T05:32:45.326Z,11.400
2023-04-16T05:33:37.445Z,11.750
2023-04-16T05:34:30.147Z,13.600
2023-04-16T05:35:22.884Z,11.400
2023-04-16T05:36:22.942Z,12.050
2023-04-16T05:37:31.191Z,12.200
2023-04-16T05:38:24.965Z,11.500
2023-04-16T05:39:48.866Z,12.300
2023-04-16T05:40:43.540Z,12.700
2023-04-16T05:41:33.445Z,12.600
2023-04-16T05:42:26.411Z,13.500
2023-04-16T05:43:44.802Z,11.700
2023-04-16T05:44:36.628Z,12.600
2023-04-16T05:45:29.480Z,14.500
2023-04-16T05:46:21.767Z,13.500
2023-04-16T05:47:46.268Z,11.250
2023-04-16T05:48:34.029Z,12.300
2023-04-16T05:49:31.892Z,11.600
2023-04-16T05:50:25.126Z,14.300
2023-04-16T05:51:40.920Z,13.100
2023-04-16T05:52:32.153Z,12.600
2023-04-16T05:53:25.109Z,14.000
2023-04-16T05:54:37.712Z,13.100
2023-04-16T05:55:50.665Z,13.700
2023-04-16T05:56:36.447Z,13.300
2023-04-16T05:57:29.172Z,13.700
2023-04-16T05:58:21.293Z,13.900
2023-04-16T05:59:28.704Z,12.800
2023-04-16T06:00:29.338Z,13.800
2023-04-16T06:01:25.257Z,13.350
2023-04-16T06:02:47.256Z,14.000
2023-04-16T06:03:40.046Z,12.700
2023-04-16T06:04:23.254Z,13.400
2023-04-16T06:05:26.254Z,14.600
2023-04-16T06:06:42.523Z,11.800
2023-04-16T06:07:33.743Z,13.900
2023-04-16T06:08:26.119Z,15.000
2023-04-16T06:09:51.113Z,12.400
2023-04-16T06:10:27.838Z,14.600
2023-04-16T06:11:40.083Z,14.200
2023-04-16T06:12:30.363Z,12.100
2023-04-16T06:13:24.178Z,13.200
2023-04-16T06:14:38.827Z,11.850
2023-04-16T06:15:30.344Z,12.600
2023-04-16T06:16:23.272Z,13.150
2023-04-16T06:17:45.082Z,13.500
2023-04-16T06:18:43.785Z,12.600
2023-04-16T06:19:34.314Z,13.700
2023-04-16T06:20:26.282Z,13.800
2023-04-16T06:21:24.913Z,13.100
2023-04-16T06:22:36.138Z,10.900
2023-04-16T06:23:27.714Z,14.000
2023-04-16T06:24:21.994Z,16.000
2023-04-16T06:25:45.881Z,14.250
2023-04-16T06:26:39.006Z,13.000
2023-04-16T06:27:28.843Z,13.900
2023-04-16T06:28:24.945Z,13.800
2023-04-16T06:29:41.383Z,12.900
2023-04-16T06:30:32.948Z,13.700
2023-04-16T06:31:24.105Z,14.050
2023-04-16T06:32:20.286Z,13.200
2023-04-16T06:33:33.263Z,13.000
2023-04-16T06:34:37.004Z,13.450
2023-04-16T06:35:29.801Z,13.600
2023-04-16T06:36:20.660Z,14.400
2023-04-16T06:37:34.855Z,14.000
2023-04-16T06:38:24.539Z,11.900
2023-04-16T06:39:22.827Z,12.500
2023-04-16T06:40:48.114Z,13.950
2023-04-16T06:41:40.825Z,14.000
2023-04-16T06:42:33.505Z,12.300
2023-04-16T06:43:24.991Z,14.100
2023-04-16T06:44:30.109Z,12.950
2023-04-16T06:45:32.219Z,14.100
2023-04-16T06:46:24.921Z,13.950
2023-04-16T06:47:52.031Z,13.000
2023-04-16T06:48:44.967Z,14.300
2023-04-16T06:49:22.878Z,14.600
2023-04-16T06:50:30.263Z,13.200
2023-04-16T06:51:23.076Z,13.000
2023-04-16T06:52:36.127Z,13.800
2023-04-16T06:53:29.288Z,12.950
2023-04-16T06:54:22.290Z,13.800
2023-04-16T06:55:28.308Z,13.700
2023-04-16T06:56:42.364Z,13.600
2023-04-16T06:57:36.268Z,12.550
2023-04-16T06:58:27.278Z,14.500
2023-04-16T06:59:39.683Z,14.350
2023-04-16T07:00:35.604Z,13.900
2023-04-16T07:01:25.697Z,14.000
2023-04-16T07:02:46.391Z,13.700
2023-04-16T07:03:46.401Z,15.700
2023-04-16T07:04:39.937Z,13.400
2023-04-16T07:05:31.278Z,13.100
2023-04-16T07:06:25.153Z,12.050
2023-04-16T07:07:36.812Z,12.900
2023-04-16T07:08:29.809Z,11.200
2023-04-16T07:09:25.271Z,13.100
2023-04-16T07:10:50.277Z,12.450
2023-04-16T07:12:03.616Z,12.900
2023-04-16T07:12:28.585Z,13.100
2023-04-16T07:13:31.025Z,12.600
2023-04-16T07:14:22.359Z,11.700
2023-04-16T07:15:35.694Z,10.500
2023-04-16T07:16:27.375Z,11.600
2023-04-16T07:17:19.867Z,11.650
2023-04-16T07:18:37.037Z,11.500
2023-04-16T07:19:40.856Z,11.800
2023-04-16T07:20:33.681Z,10.800
2023-04-16T07:21:46.456Z,12.000
2023-04-16T07:22:38.017Z,13.400
2023-04-16T07:23:25.583Z,11.100
2023-04-16T07:24:24.648Z,11.200
2023-04-16T07:25:52.180Z,11.800
2023-04-16T07:26:45.124Z,11.600
2023-04-16T07:27:37.402Z,10.900
2023-04-16T07:28:29.128Z,11.500
2023-04-16T07:29:23.054Z,9.600
2023-04-16T07:30:35.233Z,12.100
2023-04-16T07:31:28.375Z,12.400
2023-04-16T07:32:21.702Z,11.350
2023-04-16T07:33:48.880Z,10.500
2023-04-16T07:34:23.595Z,12.200
2023-04-16T07:35:36.875Z,12.350
2023-04-16T07:36:27.722Z,10.900
2023-04-16T07:37:39.372Z,9.800
2023-04-16T07:38:33.383Z,12.100
2023-04-16T07:39:25.374Z,10.400
2023-04-16T07:40:27.266Z,12.000
2023-04-16T07:41:42.051Z,10.500
2023-04-16T07:42:38.073Z,10.600
2023-04-16T07:43:32.666Z,10.900
2023-04-16T07:44:23.792Z,11.200
2023-04-16T07:45:36.003Z,10.600
2023-04-16T07:46:39.394Z,11.200
2023-04-16T07:47:23.342Z,10.400
2023-04-16T07:48:49.729Z,10.900
2023-04-16T07:49:44.682Z,10.300
2023-04-16T07:50:36.689Z,9.800
2023-04-16T07:51:25.543Z,12.000
2023-04-16T07:52:21.916Z,10.800
2023-04-16T07:53:32.959Z,9.000
2023-04-16T07:55:01.509Z,10.700
2023-04-16T07:55:24.881Z,10.400
2023-04-16T07:56:47.272Z,10.400
2023-04-16T07:57:30.585Z,9.600
2023-04-16T07:58:33.318Z,10.200
2023-04-16T07:59:26.777Z,10.800
2023-04-16T08:00:38.366Z,10.050
2023-04-16T08:01:29.993Z,9.400
2023-04-16T08:02:23.287Z,8.800
2023-04-16T08:04:45.560Z,9.600
2023-04-16T08:05:38.081Z,9.600
2023-04-16T08:06:24.145Z,8.000
2023-04-16T08:07:22.198Z,7.700
2023-04-16T08:08:26.068Z,8.800
2023-04-16T08:09:27.117Z,9.500
2023-04-16T08:10:22.612Z,8.750
2023-04-16T08:11:49.153Z,9.350
2023-04-16T08:12:44.196Z,7.800
2023-04-16T08:13:33.757Z,9.400
2023-04-16T08:14:28.065Z,8.900
2023-04-16T08:15:38.070Z,9.800
2023-04-16T08:16:30.763Z,10.200
2023-04-16T08:17:24.239Z,8.200
2023-04-16T08:18:52.838Z,9.800
2023-04-16T08:19:24.579Z,10.800
2023-04-16T08:20:28.796Z,8.550
2023-04-16T08:21:31.560Z,8.600
2023-04-16T08:22:25.710Z,7.600
2023-04-16T08:23:37.184Z,8.850
2023-04-16T08:24:27.920Z,8.600
2023-04-16T08:25:28.515Z,7.850
2023-04-16T08:26:45.536Z,7.100
2023-04-16T08:27:46.244Z,8.100
2023-04-16T08:28:36.188Z,7.400
2023-04-16T08:29:27.185Z,8.000
2023-04-16T08:30:21.989Z,8.650
2023-04-16T08:31:27.636Z,7.800
2023-04-16T08:32:26.042Z,9.100
2023-04-16T08:33:53.920Z,8.550
2023-04-16T08:34:46.908Z,8.350
2023-04-16T08:35:23.581Z,7.300
2023-04-16T08:36:25.290Z,9.000
2023-04-16T08:37:26.851Z,6.800
2023-04-16T08:38:36.059Z,7.900
2023-04-16T08:39:29.051Z,7.350
2023-04-16T08:40:22.310Z,6.900
2023-04-16T08:41:52.330Z,7.000
2023-04-16T08:42:31.327Z,7.600
2023-04-16T08:43:37.738Z,7.500
2023-04-16T08:44:49.468Z,6.900
2023-04-16T08:45:24.312Z,6.900
2023-04-16T08:46:20.086Z,8.100
2023-04-16T08:47:22.698Z,7.600
2023-04-16T08:48:36.153Z,8.200
2023-04-16T08:49:49.369Z,6.700
2023-04-16T08:50:43.478Z,8.700
2023-04-16T08:51:34.986Z,8.000
2023-04-16T08:52:26.326Z,7.500
2023-04-16T08:53:23.714Z,7.250
2023-04-16T08:54:29.755Z,8.000
2023-04-16T08:55:22.971Z,8.100
2023-04-16T08:56:52.927Z,8.400
2023-04-16T08:57:46.162Z,7.200
2023-04-16T08:58:38.318Z,7.800
2023-04-16T08:59:32.818Z,7.550
2023-04-16T09:00:24.819Z,8.500
2023-04-16T09:01:34.332Z,8.300
2023-04-16T09:02:27.020Z,6.600
2023-04-16T09:03:20.223Z,7.200
2023-04-16T09:04:23.860Z,5.700
2023-04-16T09:05:37.892Z,8.900
2023-04-16T09:06:35.992Z,7.800
2023-04-16T09:07:28.689Z,6.000
2023-04-16T09:08:21.596Z,6.600
2023-04-16T09:09:33.419Z,6.000
2023-04-16T09:10:23.950Z,7.700
2023-04-16T09:11:23.639Z,6.650
2023-04-16T09:12:48.464Z,5.900
2023-04-16T09:13:40.484Z,6.900
2023-04-16T09:14:50.760Z,5.500
2023-04-16T09:15:25.465Z,6.700
2023-04-16T09:16:35.409Z,8.300
2023-04-16T09:17:30.452Z,6.650
2023-04-16T09:18:20.980Z,6.300
2023-04-16T09:19:51.765Z,6.600
2023-04-16T09:20:44.573Z,7.100
2023-04-16T09:21:28.463Z,4.900
2023-04-16T09:22:23.568Z,6.300
2023-04-16T09:23:23.984Z,6.500
2023-04-16T09:24:31.728Z,6.000
2023-04-16T09:25:25.018Z,7.400
2023-04-16T09:26:56.054Z,6.250
2023-04-16T09:27:32.577Z,6.700
2023-04-16T09:28:46.207Z,6.200
2023-04-16T09:29:36.091Z,5.700
2023-04-16T09:30:27.538Z,6.000
2023-04-16T09:31:37.372Z,7.850
2023-04-16T09:32:23.263Z,6.400
2023-04-16T09:33:23.273Z,6.550
2023-04-16T09:34:52.851Z,7.300
2023-04-16T09:35:45.926Z,7.400
2023-04-16T09:36:39.788Z,7.100
2023-04-16T09:37:30.853Z,5.600
2023-04-16T09:38:25.395Z,7.250
2023-04-16T09:39:32.579Z,5.000
2023-04-16T09:40:25.904Z,6.200
2023-04-16T09:41:56.980Z,6.900
2023-04-16T09:42:45.165Z,5.300
2023-04-16T09:43:22.777Z,5.800
2023-04-16T09:44:34.340Z,5.700
2023-04-16T09:45:29.036Z,5.900
2023-04-16T09:46:21.763Z,5.700
2023-04-16T09:47:32.113Z,6.200
2023-04-16T09:48:23.704Z,7.400
2023-04-16T09:49:25.282Z,6.600
2023-04-16T09:50:39.744Z,6.500
2023-04-16T09:51:28.945Z,4.900
2023-04-16T09:52:31.879Z,5.500
2023-04-16T09:53:25.755Z,5.300
2023-04-16T09:54:33.850Z,5.100
2023-04-16T09:55:26.844Z,6.200
2023-04-16T09:56:20.046Z,5.900
2023-04-16T09:57:51.902Z,7.000
2023-04-16T09:58:44.842Z,6.600
2023-04-16T09:59:37.734Z,7.100
2023-04-16T10:00:23.979Z,6.000
2023-04-16T10:01:23.803Z,5.400
2023-04-16T10:02:31.701Z,6.600
2023-04-16T10:03:24.168Z,5.900
2023-04-16T10:04:56.437Z,5.500
2023-04-16T10:05:48.671Z,5.100
2023-04-16T10:06:28.534Z,7.000
2023-04-16T10:07:34.896Z,7.500
2023-04-16T10:08:28.330Z,6.400
2023-04-16T10:09:35.243Z,6.400
2023-04-16T10:10:27.828Z,6.000
2023-04-16T10:11:21.062Z,5.700
2023-04-16T10:12:33.437Z,6.200
2023-04-16T10:13:46.728Z,6.900
2023-04-16T10:14:39.492Z,5.650
2023-04-16T10:15:32.832Z,5.300
2023-04-16T10:16:26.407Z,6.800
2023-04-16T10:17:24.143Z,8.600
2023-04-16T10:18:25.231Z,6.900
2023-04-16T10:19:35.027Z,6.850
2023-04-16T10:20:20.631Z,6.600
2023-04-16T10:21:43.230Z,6.650
2023-04-16T10:22:34.458Z,6.200
2023-04-16T10:23:30.040Z,6.550
2023-04-16T10:24:20.692Z,7.400
2023-04-16T10:25:29.134Z,6.900
2023-04-16T10:26:22.326Z,6.600
2023-04-16T10:27:54.096Z,4.900
2023-04-16T10:28:21.049Z,5.600
2023-04-16T10:29:35.926Z,6.300
2023-04-16T10:30:33.180Z,6.700
2023-04-16T10:31:25.991Z,6.500
2023-04-16T10:32:33.893Z,5.600
2023-04-16T10:33:26.421Z,6.700
2023-04-16T10:34:26.886Z,6.000
2023-04-16T10:35:40.704Z,5.700
2023-04-16T10:36:53.678Z,5.900
2023-04-16T10:37:37.948Z,5.900
2023-04-16T10:38:30.893Z,5.300
2023-04-16T10:39:21.633Z,7.000
2023-04-16T10:40:32.917Z,5.000
2023-04-16T10:41:22.982Z,4.600
2023-04-16T10:42:58.859Z,6.050
2023-04-16T10:43:48.509Z,5.500
2023-04-16T10:44:44.574Z,4.600
2023-04-16T10:45:25.656Z,4.300
2023-04-16T10:46:25.803Z,5.600
2023-04-16T10:47:34.694Z,5.900
2023-04-16T10:48:22.949Z,7.600
2023-04-16T10:49:20.168Z,7.100
2023-04-16T10:50:30.663Z,6.700
2023-04-16T10:51:26.787Z,8.300
2023-04-16T10:52:26.830Z,8.250
2023-04-16T10:53:30.254Z,6.900
2023-04-16T10:54:23.670Z,7.650
2023-04-16T10:55:31.378Z,7.400
2023-04-16T10:56:24.038Z,7.700
2023-04-16T10:57:34.622Z,7.750
2023-04-16T10:58:39.017Z,7.900
2023-04-16T10:59:45.229Z,7.950
2023-04-16T11:00:36.338Z,8.800
2023-04-16T11:01:27.913Z,7.500
2023-04-16T11:02:23.713Z,6.850
2023-04-16T11:03:27.976Z,7.500
2023-04-16T11:04:21.351Z,8.200
2023-04-16T11:05:54.689Z,8.050
2023-04-16T11:06:47.427Z,7.200
2023-04-16T11:07:21.457Z,7.100
2023-04-16T11:08:35.006Z,6.950
2023-04-16T11:09:24.921Z,7.800
2023-04-16T11:10:31.993Z,7.400
2023-04-16T11:11:24.918Z,7.550
2023-04-16T11:12:24.980Z,6.900
2023-04-16T11:13:21.610Z,9.000
2023-04-16T11:14:36.341Z,8.000
2023-04-16T11:15:37.035Z,6.400
2023-04-16T11:16:30.312Z,7.000
2023-04-16T11:17:22.066Z,6.750
2023-04-16T11:18:29.288Z,7.100
2023-04-16T11:19:21.840Z,7.700
2023-04-16T11:20:40.844Z,7.650
2023-04-16T11:21:48.962Z,7.100
2023-04-16T11:22:43.033Z,9.200
2023-04-16T11:23:35.177Z,8.600
2023-04-16T11:24:26.318Z,7.800
2023-04-16T11:25:32.910Z,6.500
2023-04-16T11:26:25.922Z,7.600
2023-04-16T11:27:58.411Z,7.250
2023-04-16T11:28:52.996Z,8.050
2023-04-16T11:29:29.615Z,8.000
2023-04-16T11:30:23.706Z,8.250
2023-04-16T11:31:32.150Z,7.500
2023-04-16T11:32:25.035Z,8.300
2023-04-16T11:33:58.908Z,7.500
2023-04-16T11:34:22.653Z,7.500
2023-04-16T11:35:56.878Z,8.500
2023-04-16T11:36:29.672Z,8.300
2023-04-16T11:37:43.965Z,8.700
2023-04-16T11:38:35.686Z,8.700
2023-04-16T11:39:28.188Z,9.900
2023-04-16T11:40:20.874Z,8.800
2023-04-16T11:41:20.780Z,7.650
2023-04-16T11:43:48.592Z,7.650
2023-04-16T11:44:47.377Z,8.600
2023-04-16T11:45:39.491Z,7.200
2023-04-16T11:46:29.592Z,7.300
2023-04-16T11:47:27.620Z,7.300
2023-04-16T11:48:21.667Z,8.200
2023-04-16T11:49:26.528Z,7.900
2023-04-16T11:50:59.511Z,9.400
2023-04-16T11:51:51.249Z,7.500
2023-04-16T11:52:34.516Z,7.500
2023-04-16T11:53:34.560Z,7.700
2023-04-16T11:54:26.554Z,8.000
2023-04-16T11:55:23.873Z,7.400
2023-04-16T11:56:29.620Z,7.650
2023-04-16T11:57:20.803Z,6.800
2023-04-16T11:58:23.022Z,6.900
2023-04-16T11:59:37.844Z,6.500
2023-04-16T12:00:44.697Z,8.800
2023-04-16T12:01:26.711Z,6.500
2023-04-16T12:02:21.045Z,6.750
2023-04-16T12:03:33.138Z,7.900
2023-04-16T12:04:27.912Z,7.100
2023-04-16T12:05:43.135Z,7.300
2023-04-16T12:06:48.531Z,6.700
2023-04-16T12:07:30.728Z,7.700
2023-04-16T12:08:26.021Z,7.000
2023-04-16T12:09:19.923Z,7.450
2023-04-16T12:10:25.386Z,6.800
2023-04-16T12:11:28.597Z,7.700
2023-04-16T12:12:23.168Z,8.400
2023-04-16T12:13:48.792Z,7.750
2023-04-16T12:14:44.878Z,7.100
2023-04-16T12:15:26.797Z,7.900
2023-04-16T12:16:21.710Z,6.600
2023-04-16T12:17:28.456Z,7.050
2023-04-16T12:18:20.090Z,7.500
2023-04-16T12:19:25.960Z,7.900
2023-04-16T12:20:33.628Z,8.600
2023-04-16T12:21:29.451Z,6.850
2023-04-16T12:22:43.803Z,6.100
2023-04-16T12:23:22.859Z,7.000
2023-04-16T12:24:33.443Z,8.050
2023-04-16T12:25:24.818Z,6.400
2023-04-16T12:26:22.614Z,6.850
2023-04-16T12:27:22.677Z,7.450
2023-04-16T12:28:31.421Z,5.400
2023-04-16T12:29:25.814Z,7.000
2023-04-16T12:30:22.694Z,6.500
2023-04-16T12:31:30.747Z,6.450
2023-04-16T12:32:30.650Z,6.400
2023-04-16T12:33:25.537Z,5.400
2023-04-16T12:34:28.937Z,6.450
2023-04-16T12:35:19.800Z,6.500
2023-04-16T12:36:25.205Z,5.950
2023-04-16T12:37:24.920Z,6.400
2023-04-16T12:38:32.676Z,7.300
2023-04-16T12:39:26.885Z,5.900
2023-04-16T12:40:27.951Z,6.250
2023-04-16T12:41:35.371Z,7.350
2023-04-16T12:42:24.287Z,6.500
2023-04-16T12:43:23.254Z,5.950
2023-04-16T12:44:39.026Z,6.900
2023-04-16T12:45:44.888Z,6.400
2023-04-16T12:46:29.024Z,6.850
2023-04-16T12:47:23.194Z,7.450
2023-04-16T12:48:23.180Z,5.900
2023-04-16T12:49:30.286Z,6.750
2023-04-16T12:50:21.013Z,7.900
2023-04-16T12:51:32.354Z,8.250
2023-04-16T12:52:48.812Z,7.600
2023-04-16T12:53:45.279Z,7.150
2023-04-16T12:54:22.027Z,6.800
2023-04-16T12:55:27.312Z,7.200
2023-04-16T12:56:20.476Z,7.500